createdAt,value
2023-03-13T00:00:02.070Z,1001.29
2023-03-13T00:01:02.081Z,1001.26
2023-03-13T00:02:02.088Z,1001.27
2023-03-13T00:03:02.071Z,1001.23
2023-03-13T00:04:02.055Z,1001.23
2023-03-13T00:05:02.131Z,1001.18
2023-03-13T00:06:02.037Z,1001.19
2023-03-13T00:07:02.066Z,1001.20
2023-03-13T00:08:02.053Z,1001.15
2023-03-13T00:09:02.022Z,1001.14
2023-03-13T00:10:02.020Z,1001.13
2023-03-13T00:11:02.021Z,1001.09
2023-03-13T00:12:02.008Z,1001.09
2023-03-13T00:13:02.010Z,1001.04
2023-03-13T00:14:02.021Z,1001.01
2023-03-13T00:15:02.028Z,1000.98
2023-03-13T00:16:02.018Z,1000.90
2023-03-13T00:17:02.046Z,1000.90
2023-03-13T00:18:01.976Z,1000.87
2023-03-13T00:19:01.983Z,1000.84
2023-03-13T00:20:01.985Z,1000.78
2023-03-13T00:21:01.980Z,1000.79
2023-03-13T00:22:01.959Z,1000.72
2023-03-13T00:23:01.982Z,1000.68
2023-03-13T00:24:01.966Z,1000.67
2023-03-13T00:25:01.971Z,1000.68
2023-03-13T00:26:01.956Z,1000.61
2023-03-13T00:27:01.952Z,1000.64
2023-03-13T00:28:01.931Z,1000.56
2023-03-13T00:29:01.933Z,1000.51
2023-03-13T00:30:01.920Z,1000.47
2023-03-13T00:31:02.033Z,1000.50
2023-03-13T00:32:01.980Z,1000.56
2023-03-13T00:33:01.968Z,1000.48
2023-03-13T00:34:01.934Z,1000.41
2023-03-13T00:35:01.896Z,1000.40
2023-03-13T00:36:01.933Z,1000.35
2023-03-13T00:37:01.904Z,1000.33
2023-03-13T00:38:01.888Z,1000.30
2023-03-13T00:39:01.897Z,1000.27
2023-03-13T00:40:01.930Z,1000.32
2023-03-13T00:41:01.885Z,1000.26
2023-03-13T00:42:01.860Z,1000.27
2023-03-13T00:43:01.866Z,1000.28
2023-03-13T00:44:01.919Z,1000.28
2023-03-13T00:45:01.867Z,1000.24
2023-03-13T00:46:01.900Z,1000.28
2023-03-13T00:47:01.862Z,1000.26
2023-03-13T00:48:01.850Z,1000.23
2023-03-13T00:49:01.830Z,1000.24
2023-03-13T00:50:01.880Z,1000.17
2023-03-13T00:51:01.832Z,1000.17
2023-03-13T00:52:01.836Z,1000.12
2023-03-13T00:53:01.810Z,1000.09
2023-03-13T00:54:01.818Z,1000.03
2023-03-13T00:55:01.816Z,1000.05
2023-03-13T00:56:01.822Z,1000.05
2023-03-13T00:57:01.819Z,999.98
2023-03-13T00:58:01.789Z,999.97
2023-03-13T00:59:01.803Z,999.98
2023-03-13T01:00:01.797Z,999.96
2023-03-13T01:01:01.787Z,999.95
2023-03-13T01:02:01.799Z,999.95
2023-03-13T01:03:01.959Z,999.97
2023-03-13T01:04:01.769Z,999.96
2023-03-13T01:05:01.772Z,999.93
2023-03-13T01:06:01.774Z,999.95
2023-03-13T01:07:01.763Z,999.94
2023-03-13T01:08:01.752Z,999.96
2023-03-13T01:09:01.739Z,999.93
2023-03-13T01:10:01.758Z,999.87
2023-03-13T01:11:01.745Z,999.92
2023-03-13T01:12:01.857Z,999.86
2023-03-13T01:13:01.723Z,999.89
2023-03-13T01:14:01.760Z,999.92
2023-03-13T01:15:01.725Z,999.88
2023-03-13T01:16:01.773Z,999.75
2023-03-13T01:17:01.719Z,999.78
2023-03-13T01:18:01.708Z,999.78
2023-03-13T01:19:01.737Z,999.75
2023-03-13T01:20:01.716Z,999.78
2023-03-13T01:21:01.692Z,999.74
2023-03-13T01:22:01.698Z,999.69
2023-03-13T01:23:01.678Z,999.70
2023-03-13T01:24:01.706Z,999.67
2023-03-13T01:25:01.668Z,999.66
2023-03-13T01:26:01.681Z,999.68
2023-03-13T01:27:01.777Z,999.58
2023-03-13T01:28:01.689Z,999.63
2023-03-13T01:29:01.675Z,999.56
2023-03-13T01:30:01.684Z,999.58
2023-03-13T01:31:01.731Z,999.54
2023-03-13T01:32:01.644Z,999.53
2023-03-13T01:33:01.651Z,999.51
2023-03-13T01:34:01.641Z,999.53
2023-03-13T01:35:01.626Z,999.43
2023-03-13T01:36:01.745Z,999.42
2023-03-13T01:37:01.625Z,999.41
2023-03-13T01:38:01.628Z,999.41
2023-03-13T01:39:01.625Z,999.40
2023-03-13T01:40:01.618Z,999.38
2023-03-13T01:41:01.608Z,999.30
2023-03-13T01:42:01.590Z,999.33
2023-03-13T01:43:01.580Z,999.27
2023-03-13T01:44:01.637Z,999.24
2023-03-13T01:45:01.588Z,999.31
2023-03-13T01:46:01.649Z,999.20
2023-03-13T01:47:01.562Z,999.19
2023-03-13T01:48:01.579Z,999.28
2023-03-13T01:49:01.559Z,999.21
2023-03-13T01:50:01.568Z,999.24
2023-03-13T01:51:01.555Z,999.22
2023-03-13T01:52:01.558Z,999.18
2023-03-13T01:53:01.535Z,999.19
2023-03-13T01:54:01.566Z,999.15
2023-03-13T01:55:01.542Z,999.12
2023-03-13T01:56:01.550Z,999.08
2023-03-13T01:57:01.517Z,999.06
2023-03-13T01:58:01.516Z,999.03
2023-03-13T01:59:01.509Z,999.02
2023-03-13T02:00:01.541Z,998.98
2023-03-13T02:01:01.510Z,999.05
2023-03-13T02:02:01.581Z,998.94
2023-03-13T02:03:01.612Z,998.89
2023-03-13T02:04:01.500Z,998.87
2023-03-13T02:05:01.491Z,998.83
2023-03-13T02:06:01.483Z,998.84
2023-03-13T02:07:01.468Z,998.77
2023-03-13T02:08:01.482Z,998.76
2023-03-13T02:09:01.480Z,998.65
2023-03-13T02:10:01.487Z,998.63
2023-03-13T02:11:01.466Z,998.64
2023-03-13T02:12:01.462Z,998.55
2023-03-13T02:13:01.452Z,998.63
2023-03-13T02:14:01.466Z,998.54
2023-03-13T02:15:01.427Z,998.44
2023-03-13T02:16:01.579Z,998.50
2023-03-13T02:17:01.430Z,998.48
2023-03-13T02:18:01.439Z,998.42
2023-03-13T02:19:01.430Z,998.39
2023-03-13T02:20:01.422Z,998.36
2023-03-13T02:21:01.413Z,998.35
2023-03-13T02:22:01.417Z,998.40
2023-03-13T02:23:01.411Z,998.35
2023-03-13T02:24:01.405Z,998.32
2023-03-13T02:25:04.872Z,998.28
2023-03-13T02:26:01.386Z,998.28
2023-03-13T02:27:01.375Z,998.26
2023-03-13T02:28:01.376Z,998.25
2023-03-13T02:29:01.364Z,998.19
2023-03-13T02:30:01.376Z,998.23
2023-03-13T02:31:01.449Z,998.21
2023-03-13T02:32:01.380Z,998.24
2023-03-13T02:33:01.523Z,998.19
2023-03-13T02:34:01.345Z,998.21
2023-03-13T02:35:01.356Z,998.18
2023-03-13T02:36:01.449Z,998.12
2023-03-13T02:37:01.319Z,998.14
2023-03-13T02:38:01.326Z,998.17
2023-03-13T02:39:01.315Z,998.14
2023-03-13T02:40:01.313Z,998.13
2023-03-13T02:41:01.317Z,998.18
2023-03-13T02:42:01.302Z,998.13
2023-03-13T02:43:01.306Z,998.15
2023-03-13T02:44:01.296Z,998.13
2023-03-13T02:45:01.284Z,998.13
2023-03-13T02:46:01.293Z,998.09
2023-03-13T02:47:01.327Z,998.14
2023-03-13T02:48:01.398Z,998.09
2023-03-13T02:49:01.268Z,998.08
2023-03-13T02:50:01.303Z,998.04
2023-03-13T02:51:01.299Z,998.05
2023-03-13T02:52:01.275Z,998.04
2023-03-13T02:53:01.271Z,998.07
2023-03-13T02:54:01.273Z,998.08
2023-03-13T02:55:01.261Z,998.11
2023-03-13T02:56:01.244Z,998.10
2023-03-13T02:57:01.245Z,998.08
2023-03-13T02:58:01.252Z,998.09
2023-03-13T02:59:01.250Z,998.03
2023-03-13T03:00:01.228Z,998.02
2023-03-13T03:01:01.315Z,998.00
2023-03-13T03:02:01.247Z,997.99
2023-03-13T03:03:01.224Z,997.88
2023-03-13T03:04:01.287Z,997.87
2023-03-13T03:05:01.230Z,997.94
2023-03-13T03:06:01.233Z,997.89
2023-03-13T03:07:01.212Z,997.85
2023-03-13T03:08:01.203Z,997.81
2023-03-13T03:09:01.184Z,997.85
2023-03-13T03:10:01.181Z,997.80
2023-03-13T03:11:01.189Z,997.75
2023-03-13T03:12:01.182Z,997.73
2023-03-13T03:13:01.172Z,997.69
2023-03-13T03:14:01.158Z,997.65
2023-03-13T03:15:01.154Z,997.62
2023-03-13T03:16:01.229Z,997.64
2023-03-13T03:17:01.163Z,997.62
2023-03-13T03:18:01.145Z,997.59
2023-03-13T03:19:01.149Z,997.54
2023-03-13T03:20:01.162Z,997.57
2023-03-13T03:21:01.133Z,997.46
2023-03-13T03:22:01.141Z,997.50
2023-03-13T03:23:01.112Z,997.56
2023-03-13T03:24:01.128Z,997.59
2023-03-13T03:25:01.111Z,997.55
2023-03-13T03:26:01.101Z,997.50
2023-03-13T03:27:01.120Z,997.48
2023-03-13T03:28:01.108Z,997.58
2023-03-13T03:29:01.104Z,997.57
2023-03-13T03:30:01.101Z,997.56
2023-03-13T03:31:01.067Z,997.63
2023-03-13T03:32:01.173Z,997.59
2023-03-13T03:33:01.129Z,997.60
2023-03-13T03:34:01.074Z,997.64
2023-03-13T03:35:01.070Z,997.60
2023-03-13T03:36:01.193Z,997.66
2023-03-13T03:37:01.041Z,997.65
2023-03-13T03:38:01.038Z,997.65
2023-03-13T03:39:01.049Z,997.63
2023-03-13T03:40:01.035Z,997.67
2023-03-13T03:41:01.045Z,997.62
2023-03-13T03:42:01.025Z,997.62
2023-03-13T03:43:01.021Z,997.57
2023-03-13T03:44:01.010Z,997.50
2023-03-13T03:45:01.008Z,997.62
2023-03-13T03:46:01.082Z,997.51
2023-03-13T03:47:00.996Z,997.56
2023-03-13T03:48:01.006Z,997.56
2023-03-13T03:49:01.002Z,997.49
2023-03-13T03:50:00.995Z,997.46
2023-03-13T03:51:00.982Z,997.44
2023-03-13T03:52:01.016Z,997.46
2023-03-13T03:53:00.970Z,997.42
2023-03-13T03:54:00.964Z,997.36
2023-03-13T03:55:00.970Z,997.37
2023-03-13T03:56:00.958Z,997.38
2023-03-13T03:57:00.979Z,997.30
2023-03-13T03:58:00.950Z,997.34
2023-03-13T03:59:00.952Z,997.30
2023-03-13T04:00:00.936Z,997.32
2023-03-13T04:01:00.948Z,997.28
2023-03-13T04:02:01.005Z,997.27
2023-03-13T04:03:01.034Z,997.19
2023-03-13T04:04:00.939Z,997.18
2023-03-13T04:05:00.920Z,997.15
2023-03-13T04:06:00.925Z,997.15
2023-03-13T04:07:00.907Z,997.17
2023-03-13T04:08:00.933Z,997.21
2023-03-13T04:09:00.896Z,997.13
2023-03-13T04:10:00.905Z,997.13
2023-03-13T04:11:00.914Z,997.18
2023-03-13T04:12:00.897Z,997.22
2023-03-13T04:13:00.876Z,997.22
2023-03-13T04:14:00.891Z,997.22
2023-03-13T04:15:00.883Z,997.23
2023-03-13T04:16:00.886Z,997.25
2023-03-13T04:17:00.912Z,997.11
2023-03-13T04:18:00.879Z,997.11
2023-03-13T04:19:00.865Z,997.01
2023-03-13T04:20:00.849Z,997.01
2023-03-13T04:21:00.847Z,997.05
2023-03-13T04:22:00.853Z,997.07
2023-03-13T04:23:00.828Z,996.99
2023-03-13T04:24:00.867Z,996.99
2023-03-13T04:25:00.825Z,996.90
2023-03-13T04:26:00.826Z,996.96
2023-03-13T04:27:00.812Z,996.93
2023-03-13T04:28:00.819Z,996.91
2023-03-13T04:29:00.813Z,996.94
2023-03-13T04:30:00.822Z,996.97
2023-03-13T04:31:00.924Z,996.95
2023-03-13T04:32:00.808Z,996.95
2023-03-13T04:33:00.914Z,997.00
2023-03-13T04:34:00.809Z,996.89
2023-03-13T04:35:00.827Z,996.86
2023-03-13T04:36:00.815Z,996.90
2023-03-13T04:37:00.793Z,997.01
2023-03-13T04:38:00.781Z,997.02
2023-03-13T04:39:00.774Z,996.98
2023-03-13T04:40:00.798Z,996.91
2023-03-13T04:41:00.762Z,996.89
2023-03-13T04:42:00.760Z,996.85
2023-03-13T04:43:00.745Z,996.86
2023-03-13T04:44:00.757Z,996.91
2023-03-13T04:45:00.734Z,996.88
2023-03-13T04:46:00.827Z,996.94
2023-03-13T04:47:00.722Z,996.89
2023-03-13T04:48:00.736Z,996.92
2023-03-13T04:49:00.713Z,996.86
2023-03-13T04:50:00.727Z,996.85
2023-03-13T04:51:00.695Z,996.88
2023-03-13T04:52:00.725Z,996.89
2023-03-13T04:53:00.713Z,996.87
2023-03-13T04:54:00.700Z,996.87
2023-03-13T04:55:00.701Z,996.80
2023-03-13T04:56:00.725Z,996.74
2023-03-13T04:57:00.671Z,996.76
2023-03-13T04:58:00.690Z,996.73
2023-03-13T04:59:00.683Z,996.70
2023-03-13T05:00:00.674Z,996.71
2023-03-13T05:01:00.769Z,996.67
2023-03-13T05:02:00.649Z,996.67
2023-03-13T05:03:00.665Z,996.65
2023-03-13T05:04:00.651Z,996.60
2023-03-13T05:05:00.866Z,996.62
2023-03-13T05:06:00.633Z,996.62
2023-03-13T05:07:00.627Z,996.58
2023-03-13T05:08:00.618Z,996.56
2023-03-13T05:09:00.636Z,996.65
2023-03-13T05:10:00.625Z,996.62
2023-03-13T05:11:00.609Z,996.59
2023-03-13T05:12:00.653Z,996.55
2023-03-13T05:13:00.622Z,996.56
2023-03-13T05:14:00.617Z,996.54
2023-03-13T05:15:00.594Z,996.56
2023-03-13T05:16:00.627Z,996.56
2023-03-13T05:17:00.579Z,996.60
2023-03-13T05:18:00.577Z,996.58
2023-03-13T05:19:00.596Z,996.56
2023-03-13T05:20:00.562Z,996.63
2023-03-13T05:21:00.564Z,996.57
2023-03-13T05:22:00.579Z,996.61
2023-03-13T05:23:00.585Z,996.59
2023-03-13T05:24:00.567Z,996.60
2023-03-13T05:25:00.545Z,996.56
2023-03-13T05:26:00.538Z,996.56
2023-03-13T05:27:00.551Z,996.57
2023-03-13T05:28:00.572Z,996.60
2023-03-13T05:29:00.582Z,996.53
2023-03-13T05:30:00.519Z,996.51
2023-03-13T05:31:00.648Z,996.42
2023-03-13T05:32:00.509Z,996.45
2023-03-13T05:33:00.595Z,996.44
2023-03-13T05:34:00.504Z,996.45
2023-03-13T05:35:00.503Z,996.44
2023-03-13T05:36:00.570Z,996.43
2023-03-13T05:37:00.501Z,996.42
2023-03-13T05:38:00.493Z,996.44
2023-03-13T05:39:00.497Z,996.48
2023-03-13T05:40:00.487Z,996.52
2023-03-13T05:41:00.491Z,996.50
2023-03-13T05:42:00.476Z,996.52
2023-03-13T05:43:00.458Z,996.54
2023-03-13T05:44:00.488Z,996.50
2023-03-13T05:45:00.472Z,996.49
2023-03-13T05:46:00.537Z,996.46
2023-03-13T05:47:01.904Z,996.41
2023-03-13T05:48:00.440Z,996.31
2023-03-13T05:49:00.448Z,996.22
2023-03-13T05:50:00.427Z,996.21
2023-03-13T05:51:00.439Z,996.25
2023-03-13T05:52:00.434Z,996.15
2023-03-13T05:53:00.418Z,996.14
2023-03-13T05:54:00.417Z,996.05
2023-03-13T05:55:00.416Z,996.05
2023-03-13T05:56:00.393Z,996.03
2023-03-13T05:57:00.395Z,995.99
2023-03-13T05:58:00.385Z,995.96
2023-03-13T05:59:00.409Z,996.03
2023-03-13T06:00:00.417Z,996.10
2023-03-13T06:01:00.376Z,996.08
2023-03-13T06:02:00.380Z,996.19
2023-03-13T06:03:00.384Z,996.25
2023-03-13T06:04:00.549Z,996.31
2023-03-13T06:05:00.405Z,996.36
2023-03-13T06:06:00.353Z,996.41
2023-03-13T06:07:00.365Z,996.41
2023-03-13T06:08:00.359Z,996.35
2023-03-13T06:09:00.353Z,996.33
2023-03-13T06:10:00.341Z,996.33
2023-03-13T06:11:00.345Z,996.33
2023-03-13T06:12:00.338Z,996.24
2023-03-13T06:13:13.748Z,996.14
2023-03-13T06:14:00.321Z,996.20
2023-03-13T06:15:00.320Z,996.43
2023-03-13T06:16:00.444Z,996.50
2023-03-13T06:17:00.325Z,996.53
2023-03-13T06:18:00.305Z,996.51
2023-03-13T06:19:00.299Z,996.49
2023-03-13T06:20:00.305Z,996.53
2023-03-13T06:21:00.306Z,996.52
2023-03-13T06:22:00.289Z,996.51
2023-03-13T06:23:00.303Z,996.54
2023-03-13T06:24:00.278Z,996.58
2023-03-13T06:25:00.291Z,996.59
2023-03-13T06:26:00.287Z,996.60
2023-03-13T06:27:00.286Z,996.62
2023-03-13T06:28:00.263Z,996.69
2023-03-13T06:29:00.262Z,996.60
2023-03-13T06:30:00.264Z,996.56
2023-03-13T06:31:00.299Z,996.61
2023-03-13T06:32:00.458Z,996.56
2023-03-13T06:33:00.426Z,996.62
2023-03-13T06:34:00.243Z,996.59
2023-03-13T06:35:00.267Z,996.56
2023-03-13T06:36:00.324Z,996.56
2023-03-13T06:37:00.243Z,996.56
2023-03-13T06:38:00.232Z,996.60
2023-03-13T06:39:00.233Z,996.52
2023-03-13T06:40:00.229Z,996.59
2023-03-13T06:41:00.254Z,996.58
2023-03-13T06:42:00.240Z,996.67
2023-03-13T06:43:00.248Z,996.65
2023-03-13T06:44:00.220Z,996.57
2023-03-13T06:45:00.217Z,996.56
2023-03-13T06:46:00.196Z,996.59
2023-03-13T06:47:00.290Z,996.58
2023-03-13T06:48:00.228Z,996.55
2023-03-13T06:49:00.190Z,996.60
2023-03-13T06:50:00.200Z,996.62
2023-03-13T06:51:00.197Z,996.60
2023-03-13T06:52:00.200Z,996.63
2023-03-13T06:53:00.191Z,996.66
2023-03-13T06:54:00.221Z,996.63
2023-03-13T06:55:00.177Z,996.68
2023-03-13T06:56:00.164Z,996.72
2023-03-13T06:57:00.185Z,996.73
2023-03-13T06:58:00.157Z,996.74
2023-03-13T06:59:00.361Z,996.67
2023-03-13T07:00:00.149Z,996.76
2023-03-13T07:01:00.287Z,996.78
2023-03-13T07:02:00.154Z,996.74
2023-03-13T07:03:00.156Z,996.75
2023-03-13T07:04:00.262Z,996.75
2023-03-13T07:05:00.157Z,996.74
2023-03-13T07:06:00.158Z,996.82
2023-03-13T07:07:00.156Z,996.75
2023-03-13T07:08:00.130Z,996.80
2023-03-13T07:09:00.144Z,996.79
2023-03-13T07:10:00.195Z,996.77
2023-03-13T07:11:00.128Z,996.74
2023-03-13T07:12:00.173Z,996.79
2023-03-13T07:13:00.136Z,996.82
2023-03-13T07:14:14.907Z,996.83
2023-03-13T07:15:00.145Z,996.82
2023-03-13T07:16:00.270Z,996.78
2023-03-13T07:17:00.222Z,996.74
2023-03-13T07:18:00.106Z,996.71
2023-03-13T07:19:00.110Z,996.71
2023-03-13T07:20:00.331Z,996.78
2023-03-13T07:21:00.191Z,996.77
2023-03-13T07:22:00.152Z,996.82
2023-03-13T07:23:00.102Z,996.90
2023-03-13T07:24:00.130Z,996.75
2023-03-13T07:25:00.156Z,996.84
2023-03-13T07:26:00.112Z,996.89
2023-03-13T07:27:07.283Z,996.95
2023-03-13T07:28:00.112Z,996.86
2023-03-13T07:29:00.130Z,997.00
2023-03-13T07:30:00.119Z,996.93
2023-03-13T07:31:00.096Z,996.94
2023-03-13T07:32:00.190Z,996.87
2023-03-13T07:33:00.252Z,996.86
2023-03-13T07:34:00.084Z,996.95
2023-03-13T07:35:00.106Z,996.86
2023-03-13T07:36:00.208Z,996.91
2023-03-13T07:37:00.093Z,996.86
2023-03-13T07:38:00.057Z,996.81
2023-03-13T07:39:00.052Z,996.80
2023-03-13T07:40:00.040Z,996.80
2023-03-13T07:41:00.054Z,996.73
2023-03-13T07:42:00.042Z,996.63
2023-03-13T07:43:00.035Z,996.54
2023-03-13T07:44:00.041Z,996.53
2023-03-13T07:45:00.079Z,996.50
2023-03-13T07:46:00.081Z,996.47
2023-03-13T07:47:00.613Z,996.51
2023-03-13T07:48:00.008Z,996.43
2023-03-13T07:49:00.021Z,996.46
2023-03-13T07:50:00.090Z,996.44
2023-03-13T07:51:00.006Z,996.46
2023-03-13T07:52:00.140Z,996.42
2023-03-13T07:53:00.065Z,996.48
2023-03-13T07:53:59.986Z,996.41
2023-03-13T07:55:00.014Z,996.39
2023-03-13T07:55:59.986Z,996.42
2023-03-13T07:57:00.010Z,996.44
2023-03-13T07:57:59.989Z,996.38
2023-03-13T07:58:59.989Z,996.41
2023-03-13T07:59:59.973Z,996.39
2023-03-13T08:00:59.973Z,996.42
2023-03-13T08:02:00.056Z,996.40
2023-03-13T08:03:00.082Z,996.42
2023-03-13T08:03:59.954Z,996.33
2023-03-13T08:04:59.967Z,996.42
2023-03-13T08:05:59.960Z,996.46
2023-03-13T08:06:59.978Z,996.42
2023-03-13T08:07:59.983Z,996.36
2023-03-13T08:08:59.944Z,996.34
2023-03-13T08:09:59.936Z,996.39
2023-03-13T08:10:59.939Z,996.37
2023-03-13T08:11:59.933Z,996.36
2023-03-13T08:12:59.929Z,996.35
2023-03-13T08:13:59.947Z,996.31
2023-03-13T08:14:59.934Z,996.36
2023-03-13T08:15:59.924Z,996.34
2023-03-13T08:17:00.072Z,996.31
2023-03-13T08:17:59.931Z,996.25
2023-03-13T08:18:59.920Z,996.23
2023-03-13T08:19:59.901Z,996.23
2023-03-13T08:20:59.914Z,996.28
2023-03-13T08:21:59.894Z,996.27
2023-03-13T08:22:59.888Z,996.24
2023-03-13T08:23:59.916Z,996.23
2023-03-13T08:24:59.898Z,996.29
2023-03-13T08:25:59.888Z,996.29
2023-03-13T08:26:59.885Z,996.22
2023-03-13T08:28:02.338Z,996.30
2023-03-13T08:28:59.879Z,996.30
2023-03-13T08:29:59.875Z,996.27
2023-03-13T08:30:59.902Z,996.27
2023-03-13T08:31:59.871Z,996.23
2023-03-13T08:32:59.916Z,996.25
2023-03-13T08:33:59.844Z,996.23
2023-03-13T08:34:59.870Z,996.19
2023-03-13T08:35:59.865Z,996.18
2023-03-13T08:36:59.842Z,996.20
2023-03-13T08:37:59.842Z,996.15
2023-03-13T08:38:59.853Z,996.18
2023-03-13T08:39:59.893Z,996.19
2023-03-13T08:40:59.827Z,996.25
2023-03-13T08:41:59.832Z,996.24
2023-03-13T08:42:59.824Z,996.29
2023-03-13T08:43:59.815Z,996.27
2023-03-13T08:44:59.825Z,996.25
2023-03-13T08:45:59.934Z,996.28
2023-03-13T08:46:59.834Z,996.30
2023-03-13T08:47:59.815Z,996.29
2023-03-13T08:48:59.840Z,996.27
2023-03-13T08:49:59.798Z,996.27
2023-03-13T08:50:59.810Z,996.27
2023-03-13T08:51:59.805Z,996.27
2023-03-13T08:52:59.788Z,996.21
2023-03-13T08:53:59.794Z,996.23
2023-03-13T08:54:59.800Z,996.22
2023-03-13T08:55:59.815Z,996.18
2023-03-13T08:56:59.793Z,996.19
2023-03-13T08:57:59.794Z,996.18
2023-03-13T08:58:59.889Z,996.17
2023-03-13T08:59:59.771Z,996.19
2023-03-13T09:00:59.761Z,996.19
2023-03-13T09:01:59.782Z,996.17
2023-03-13T09:02:59.833Z,996.18
2023-03-13T09:04:03.222Z,996.16
2023-03-13T09:04:59.763Z,996.19
2023-03-13T09:05:59.911Z,996.25
2023-03-13T09:06:59.779Z,996.24
2023-03-13T09:07:59.752Z,996.19
2023-03-13T09:08:59.745Z,996.17
2023-03-13T09:09:59.722Z,996.21
2023-03-13T09:10:59.737Z,996.19
2023-03-13T09:11:59.742Z,996.09
2023-03-13T09:12:59.722Z,996.16
2023-03-13T09:13:59.727Z,996.21
2023-03-13T09:14:59.722Z,996.18
2023-03-13T09:15:59.754Z,996.20
2023-03-13T09:16:59.716Z,996.18
2023-03-13T09:17:59.757Z,996.04
2023-03-13T09:18:59.925Z,996.11
2023-03-13T09:20:01.208Z,996.07
2023-03-13T09:20:59.919Z,996.09
2023-03-13T09:21:59.685Z,996.08
2023-03-13T09:22:59.691Z,996.09
2023-03-13T09:23:59.690Z,996.02
2023-03-13T09:24:59.687Z,996.09
2023-03-13T09:25:59.706Z,995.98
2023-03-13T09:27:01.771Z,996.05
2023-03-13T09:27:59.691Z,996.11
2023-03-13T09:28:59.676Z,996.03
2023-03-13T09:29:59.671Z,995.96
2023-03-13T09:30:59.691Z,995.99
2023-03-13T09:31:59.677Z,996.01
2023-03-13T09:32:59.805Z,995.91
2023-03-13T09:33:59.652Z,995.92
2023-03-13T09:34:59.655Z,996.00
2023-03-13T09:35:59.713Z,995.98
2023-03-13T09:36:59.639Z,995.96
2023-03-13T09:37:59.641Z,995.95
2023-03-13T09:38:59.617Z,996.02
2023-03-13T09:39:59.635Z,995.91
2023-03-13T09:41:05.988Z,995.91
2023-03-13T09:41:59.616Z,995.96
2023-03-13T09:42:59.620Z,995.91
2023-03-13T09:43:59.627Z,995.90
2023-03-13T09:44:59.624Z,995.87
2023-03-13T09:45:59.735Z,995.89
2023-03-13T09:46:59.590Z,995.88
2023-03-13T09:47:59.609Z,995.89
2023-03-13T09:48:59.594Z,995.91
2023-03-13T09:49:59.581Z,995.84
2023-03-13T09:50:59.572Z,995.79
2023-03-13T09:51:59.601Z,995.81
2023-03-13T09:52:59.567Z,995.80
2023-03-13T09:53:59.566Z,995.79
2023-03-13T09:54:59.576Z,995.74
2023-03-13T09:55:59.580Z,995.78
2023-03-13T09:56:59.553Z,995.83
2023-03-13T09:57:59.547Z,995.75
2023-03-13T09:58:59.557Z,995.85
2023-03-13T09:59:59.559Z,995.72
2023-03-13T10:00:59.552Z,995.75
2023-03-13T10:01:59.684Z,995.80
2023-03-13T10:02:59.537Z,995.70
2023-03-13T10:03:59.572Z,995.78
2023-03-13T10:04:59.550Z,995.72
2023-03-13T10:05:59.528Z,995.76
2023-03-13T10:06:59.527Z,995.71
2023-03-13T10:07:59.556Z,995.78
2023-03-13T10:08:59.505Z,995.73
2023-03-13T10:09:59.520Z,995.64
2023-03-13T10:10:59.514Z,995.67
2023-03-13T10:11:59.507Z,995.70
2023-03-13T10:12:59.489Z,995.73
2023-03-13T10:13:59.511Z,995.70
2023-03-13T10:14:59.509Z,995.63
2023-03-13T10:15:59.550Z,995.66
2023-03-13T10:16:59.487Z,995.61
2023-03-13T10:17:59.480Z,995.54
2023-03-13T10:18:59.474Z,995.62
2023-03-13T10:19:59.469Z,995.47
2023-03-13T10:20:59.478Z,995.52
2023-03-13T10:21:59.469Z,995.53
2023-03-13T10:22:59.450Z,995.58
2023-03-13T10:23:59.449Z,995.39
2023-03-13T10:24:59.450Z,995.45
2023-03-13T10:25:59.471Z,995.36
2023-03-13T10:26:59.435Z,995.44
2023-03-13T10:27:59.434Z,995.42
2023-03-13T10:28:59.429Z,995.35
2023-03-13T10:29:59.427Z,995.39
2023-03-13T10:30:59.505Z,995.27
2023-03-13T10:31:59.456Z,995.33
2023-03-13T10:32:59.497Z,995.24
2023-03-13T10:33:59.466Z,995.30
2023-03-13T10:34:59.421Z,995.31
2023-03-13T10:35:59.453Z,995.28
2023-03-13T10:36:59.401Z,995.25
2023-03-13T10:37:59.398Z,995.27
2023-03-13T10:38:59.401Z,995.13
2023-03-13T10:39:59.390Z,995.17
2023-03-13T10:40:59.403Z,995.10
2023-03-13T10:41:59.380Z,995.12
2023-03-13T10:42:59.390Z,995.18
2023-03-13T10:43:59.403Z,995.18
2023-03-13T10:44:59.379Z,995.15
2023-03-13T10:45:59.364Z,995.08
2023-03-13T10:46:59.423Z,995.08
2023-03-13T10:47:59.389Z,995.08
2023-03-13T10:48:59.363Z,995.14
2023-03-13T10:49:59.353Z,995.09
2023-03-13T10:51:01.944Z,995.11
2023-03-13T10:51:59.353Z,995.11
2023-03-13T10:52:59.354Z,995.04
2023-03-13T10:53:59.337Z,995.13
2023-03-13T10:54:59.342Z,994.99
2023-03-13T10:55:59.341Z,995.00
2023-03-13T10:57:02.148Z,994.97
2023-03-13T10:57:59.332Z,995.01
2023-03-13T10:58:59.335Z,994.90
2023-03-13T10:59:59.343Z,994.87
2023-03-13T11:00:59.310Z,994.93
2023-03-13T11:01:59.322Z,994.81
2023-03-13T11:02:59.471Z,994.90
2023-03-13T11:03:59.451Z,994.80
2023-03-13T11:04:59.301Z,994.81
2023-03-13T11:05:59.308Z,994.60
2023-03-13T11:06:59.310Z,994.66
2023-03-13T11:07:59.314Z,994.71
2023-03-13T11:08:59.297Z,994.71
2023-03-13T11:09:59.298Z,994.80
2023-03-13T11:10:59.281Z,994.66
2023-03-13T11:11:59.286Z,994.61
2023-03-13T11:12:59.278Z,994.58
2023-03-13T11:13:59.264Z,994.62
2023-03-13T11:14:59.327Z,994.59
2023-03-13T11:15:59.382Z,994.63
2023-03-13T11:16:59.250Z,994.66
2023-03-13T11:17:59.262Z,994.56
2023-03-13T11:18:59.238Z,994.53
2023-03-13T11:19:59.321Z,994.50
2023-03-13T11:21:15.616Z,994.51
2023-03-13T11:21:59.294Z,994.50
2023-03-13T11:22:59.233Z,994.37
2023-03-13T11:23:59.234Z,994.32
2023-03-13T11:24:59.242Z,994.39
2023-03-13T11:25:59.249Z,994.35
2023-03-13T11:27:04.624Z,994.19
2023-03-13T11:27:59.223Z,994.28
2023-03-13T11:28:59.220Z,994.28
2023-03-13T11:29:59.369Z,994.14
2023-03-13T11:30:59.200Z,994.20
2023-03-13T11:31:59.274Z,994.17
2023-03-13T11:32:59.317Z,994.16
2023-03-13T11:33:59.191Z,994.23
2023-03-13T11:34:59.199Z,994.17
2023-03-13T11:35:59.290Z,994.09
2023-03-13T11:36:59.193Z,994.16
2023-03-13T11:37:59.199Z,994.01
2023-03-13T11:38:59.188Z,994.05
2023-03-13T11:39:59.195Z,994.05
2023-03-13T11:40:59.172Z,993.99
2023-03-13T11:41:59.190Z,993.96
2023-03-13T11:42:59.179Z,993.93
2023-03-13T11:43:59.179Z,993.95
2023-03-13T11:44:59.148Z,993.94
2023-03-13T11:45:59.285Z,993.89
2023-03-13T11:46:59.262Z,993.82
2023-03-13T11:47:59.160Z,993.90
2023-03-13T11:48:59.150Z,993.84
2023-03-13T11:49:59.140Z,993.82
2023-03-13T11:50:59.190Z,993.68
2023-03-13T11:51:59.189Z,993.65
2023-03-13T11:52:59.153Z,993.63
2023-03-13T11:53:59.490Z,993.63
2023-03-13T11:54:59.430Z,993.63
2023-03-13T11:55:59.128Z,993.68
2023-03-13T11:56:59.125Z,993.60
2023-03-13T11:57:59.125Z,993.77
2023-03-13T11:58:59.112Z,993.71
2023-03-13T11:59:59.106Z,993.65
2023-03-13T12:00:59.156Z,993.59
2023-03-13T12:01:59.144Z,993.55
2023-03-13T12:02:59.095Z,993.53
2023-03-13T12:03:59.258Z,993.67
2023-03-13T12:04:59.107Z,993.60
2023-03-13T12:05:59.081Z,993.56
2023-03-13T12:06:59.072Z,993.58
2023-03-13T12:07:59.102Z,993.47
2023-03-13T12:08:59.076Z,993.54
2023-03-13T12:09:59.077Z,993.66
2023-03-13T12:10:59.071Z,993.59
2023-03-13T12:11:59.083Z,993.66
2023-03-13T12:12:59.054Z,993.66
2023-03-13T12:13:59.088Z,993.68
2023-03-13T12:14:59.055Z,993.69
2023-03-13T12:15:59.047Z,993.51
2023-03-13T12:16:59.146Z,993.50
2023-03-13T12:17:59.087Z,993.43
2023-03-13T12:18:59.033Z,993.54
2023-03-13T12:19:59.049Z,993.54
2023-03-13T12:20:59.037Z,993.56
2023-03-13T12:21:59.148Z,993.55
2023-03-13T12:22:59.028Z,993.44
2023-03-13T12:23:59.227Z,993.45
2023-03-13T12:24:59.023Z,993.47
2023-03-13T12:25:59.011Z,993.41